sensor_id;sensor_type;location;lat;lon;timestamp;pressure;altitude;pressure_sealevel;temperature;humidity
15678;BME280;7939;50.814;6.368;2023-04-06T00:02:13;100113.09;;;10.27;46.57
15678;BME280;7939;50.814;6.368;2023-04-06T00:04:40;100116.50;;;10.26;45.99
15678;BME280;7939;50.814;6.368;2023-04-06T00:07:06;100111.38;;;10.26;46.27
15678;BME280;7939;50.814;6.368;2023-04-06T00:09:33;100106.22;;;10.23;46.24
15678;BME280;7939;50.814;6.368;2023-04-06T00:11:59;100099.41;;;10.22;46.17
15678;BME280;7939;50.814;6.368;2023-04-06T00:14:26;100107.94;;;10.23;46.47
15678;BME280;7939;50.814;6.368;2023-04-06T00:16:55;100098.53;;;10.20;46.37
15678;BME280;7939;50.814;6.368;2023-04-06T00:19:21;100100.25;;;10.20;45.97
15678;BME280;7939;50.814;6.368;2023-04-06T00:21:48;100100.19;;;10.17;46.29
15678;BME280;7939;50.814;6.368;2023-04-06T00:24:15;100089.13;;;10.16;46.39
15678;BME280;7939;50.814;6.368;2023-04-06T00:26:41;100094.25;;;10.15;46.25
15678;BME280;7939;50.814;6.368;2023-04-06T00:29:08;100092.53;;;10.14;46.69
15678;BME280;7939;50.814;6.368;2023-04-06T00:31:35;100086.53;;;10.12;46.78
15678;BME280;7939;50.814;6.368;2023-04-06T00:34:03;100079.72;;;10.11;46.25
15678;BME280;7939;50.814;6.368;2023-04-06T00:36:29;100084.84;;;10.09;46.67
15678;BME280;7939;50.814;6.368;2023-04-06T00:38:56;100084.84;;;10.08;46.90
15678;BME280;7939;50.814;6.368;2023-04-06T00:41:23;100083.97;;;10.09;46.21
15678;BME280;7939;50.814;6.368;2023-04-06T00:43:50;100075.47;;;10.07;46.25
15678;BME280;7939;50.814;6.368;2023-04-06T00:46:16;100074.63;;;10.06;46.37
15678;BME280;7939;50.814;6.368;2023-04-06T00:48:43;100077.97;;;10.04;46.32
15678;BME280;7939;50.814;6.368;2023-04-06T00:51:11;100066.91;;;10.03;46.46
15678;BME280;7939;50.814;6.368;2023-04-06T00:53:37;100067.75;;;10.00;46.37
15678;BME280;7939;50.814;6.368;2023-04-06T00:56:04;100060.97;;;9.99;46.53
15678;BME280;7939;50.814;6.368;2023-04-06T00:58:31;100066.88;;;9.98;46.45
15678;BME280;7939;50.814;6.368;2023-04-06T01:00:58;100063.47;;;9.98;46.66
15678;BME280;7939;50.814;6.368;2023-04-06T01:03:24;100059.22;;;9.97;46.41
15678;BME280;7939;50.814;6.368;2023-04-06T01:05:51;100052.41;;;9.96;46.68
15678;BME280;7939;50.814;6.368;2023-04-06T01:08:24;100049.00;;;9.94;46.50
15678;BME280;7939;50.814;6.368;2023-04-06T01:10:51;100048.97;;;9.92;46.89
15678;BME280;7939;50.814;6.368;2023-04-06T01:13:18;100051.53;;;9.92;46.26
15678;BME280;7939;50.814;6.368;2023-04-06T01:15:45;100048.13;;;9.90;46.84
15678;BME280;7939;50.814;6.368;2023-04-06T01:18:12;100044.72;;;9.88;46.87
15678;BME280;7939;50.814;6.368;2023-04-06T01:20:39;100049.81;;;9.87;46.87
15678;BME280;7939;50.814;6.368;2023-04-06T01:23:07;100036.16;;;9.85;46.56
15678;BME280;7939;50.814;6.368;2023-04-06T01:25:34;100045.50;;;9.84;46.78
15678;BME280;7939;50.814;6.368;2023-04-06T01:28:01;100026.78;;;9.82;46.36
15678;BME280;7939;50.814;6.368;2023-04-06T01:30:28;100032.75;;;9.81;46.27
15678;BME280;7939;50.814;6.368;2023-04-06T01:32:54;100024.25;;;9.82;46.96
15678;BME280;7939;50.814;6.368;2023-04-06T01:35:21;100029.34;;;9.81;46.67
15678;BME280;7939;50.814;6.368;2023-04-06T01:37:48;100022.50;;;9.78;46.32
15678;BME280;7939;50.814;6.368;2023-04-06T01:40:16;100016.53;;;9.78;47.00
15678;BME280;7939;50.814;6.368;2023-04-06T01:42:43;100016.53;;;9.75;46.51
15678;BME280;7939;50.814;6.368;2023-04-06T01:45:10;100012.28;;;9.75;46.54
15678;BME280;7939;50.814;6.368;2023-04-06T01:47:36;100010.56;;;9.74;46.75
15678;BME280;7939;50.814;6.368;2023-04-06T01:50:04;100014.81;;;9.73;46.42
15678;BME280;7939;50.814;6.368;2023-04-06T01:52:32;100013.94;;;9.70;46.92
15678;BME280;7939;50.814;6.368;2023-04-06T01:54:59;100011.41;;;9.71;46.60
15678;BME280;7939;50.814;6.368;2023-04-06T01:57:27;100002.88;;;9.71;46.15
15678;BME280;7939;50.814;6.368;2023-04-06T01:59:53;100002.88;;;9.69;47.12
15678;BME280;7939;50.814;6.368;2023-04-06T02:02:20;100001.19;;;9.70;46.58
15678;BME280;7939;50.814;6.368;2023-04-06T02:04:46;99999.44;;;9.67;46.57
15678;BME280;7939;50.814;6.368;2023-04-06T02:07:13;99995.19;;;9.66;46.80
15678;BME280;7939;50.814;6.368;2023-04-06T02:09:40;99992.63;;;9.65;47.08
15678;BME280;7939;50.814;6.368;2023-04-06T02:12:06;99991.78;;;9.64;46.85
15678;BME280;7939;50.814;6.368;2023-04-06T02:14:34;99989.19;;;9.61;47.01
15678;BME280;7939;50.814;6.368;2023-04-06T02:17:01;99992.63;;;9.63;46.24
15678;BME280;7939;50.814;6.368;2023-04-06T02:19:27;99989.19;;;9.61;46.73
15678;BME280;7939;50.814;6.368;2023-04-06T02:21:54;99987.50;;;9.60;47.25
15678;BME280;7939;50.814;6.368;2023-04-06T02:24:21;99992.59;;;9.60;46.63
15678;BME280;7939;50.814;6.368;2023-04-06T02:26:47;99982.38;;;9.59;46.46
15678;BME280;7939;50.814;6.368;2023-04-06T02:29:14;99984.94;;;9.59;46.33
15678;BME280;7939;50.814;6.368;2023-04-06T02:31:42;99984.94;;;9.59;46.21
15678;BME280;7939;50.814;6.368;2023-04-06T02:34:08;99989.19;;;9.58;46.32
15678;BME280;7939;50.814;6.368;2023-04-06T02:36:37;99988.34;;;9.56;46.95
15678;BME280;7939;50.814;6.368;2023-04-06T02:39:03;99984.09;;;9.57;46.33
15678;BME280;7939;50.814;6.368;2023-04-06T02:41:30;99986.59;;;9.55;46.69
15678;BME280;7939;50.814;6.368;2023-04-06T02:43:57;99986.59;;;9.54;46.99
15678;BME280;7939;50.814;6.368;2023-04-06T02:46:23;99985.75;;;9.53;47.01
15678;BME280;7939;50.814;6.368;2023-04-06T02:48:51;99990.84;;;9.53;46.58
15678;BME280;7939;50.814;6.368;2023-04-06T02:51:18;99992.56;;;9.53;47.04
15678;BME280;7939;50.814;6.368;2023-04-06T02:53:45;99988.28;;;9.52;47.11
15678;BME280;7939;50.814;6.368;2023-04-06T02:56:12;99990.84;;;9.50;47.15
15678;BME280;7939;50.814;6.368;2023-04-06T02:58:38;99979.75;;;9.48;46.90
15678;BME280;7939;50.814;6.368;2023-04-06T03:01:05;99977.19;;;9.48;46.52
15678;BME280;7939;50.814;6.368;2023-04-06T03:03:32;99978.06;;;9.49;46.56
15678;BME280;7939;50.814;6.368;2023-04-06T03:06:00;99978.91;;;9.48;47.40
15678;BME280;7939;50.814;6.368;2023-04-06T03:08:26;99981.44;;;9.46;46.49
15678;BME280;7939;50.814;6.368;2023-04-06T03:10:53;99974.63;;;9.45;46.74
15678;BME280;7939;50.814;6.368;2023-04-06T03:13:20;99972.94;;;9.45;46.84
15678;BME280;7939;50.814;6.368;2023-04-06T03:15:47;99972.09;;;9.43;47.29
15678;BME280;7939;50.814;6.368;2023-04-06T03:18:14;99969.53;;;9.43;47.31
15678;BME280;7939;50.814;6.368;2023-04-06T03:20:40;99968.69;;;9.43;46.65
15678;BME280;7939;50.814;6.368;2023-04-06T03:23:09;99966.94;;;9.42;47.35
15678;BME280;7939;50.814;6.368;2023-04-06T03:25:36;99970.34;;;9.42;47.46
15678;BME280;7939;50.814;6.368;2023-04-06T03:28:04;99962.69;;;9.41;47.26
15678;BME280;7939;50.814;6.368;2023-04-06T03:30:31;99966.09;;;9.40;47.14
15678;BME280;7939;50.814;6.368;2023-04-06T03:32:58;99967.78;;;9.38;46.74
15678;BME280;7939;50.814;6.368;2023-04-06T03:35:24;99965.25;;;9.38;46.76
15678;BME280;7939;50.814;6.368;2023-04-06T03:37:51;99966.09;;;9.38;46.67
15678;BME280;7939;50.814;6.368;2023-04-06T03:40:19;99971.19;;;9.37;47.18
15678;BME280;7939;50.814;6.368;2023-04-06T03:42:46;99970.28;;;9.33;47.72
15678;BME280;7939;50.814;6.368;2023-04-06T03:45:13;99967.75;;;9.33;47.11
15678;BME280;7939;50.814;6.368;2023-04-06T03:47:39;99974.53;;;9.34;46.67
15678;BME280;7939;50.814;6.368;2023-04-06T03:50:06;99966.88;;;9.33;47.04
15678;BME280;7939;50.814;6.368;2023-04-06T03:52:34;99962.63;;;9.30;47.26
15678;BME280;7939;50.814;6.368;2023-04-06T03:55:00;99961.75;;;9.30;47.33
15678;BME280;7939;50.814;6.368;2023-04-06T03:57:28;99964.31;;;9.30;47.09
15678;BME280;7939;50.814;6.368;2023-04-06T03:59:55;99960.03;;;9.27;46.93
15678;BME280;7939;50.814;6.368;2023-04-06T04:02:22;99963.44;;;9.26;46.62
15678;BME280;7939;50.814;6.368;2023-04-06T04:04:49;99962.53;;;9.23;46.86
15678;BME280;7939;50.814;6.368;2023-04-06T04:07:16;99962.53;;;9.23;47.54
15678;BME280;7939;50.814;6.368;2023-04-06T04:09:42;99959.13;;;9.19;47.42
15678;BME280;7939;50.814;6.368;2023-04-06T04:12:09;99962.53;;;9.19;47.39
15678;BME280;7939;50.814;6.368;2023-04-06T04:14:37;99965.09;;;9.18;46.42
15678;BME280;7939;50.814;6.368;2023-04-06T04:17:03;99958.25;;;9.15;46.61
15678;BME280;7939;50.814;6.368;2023-04-06T04:19:30;99961.66;;;9.16;47.37
15678;BME280;7939;50.814;6.368;2023-04-06T04:21:57;99968.44;;;9.17;47.28
15678;BME280;7939;50.814;6.368;2023-04-06T04:24:23;99962.47;;;9.12;46.85
15678;BME280;7939;50.814;6.368;2023-04-06T04:26:50;99962.50;;;9.16;46.90
15678;BME280;7939;50.814;6.368;2023-04-06T04:29:16;99970.13;;;9.13;46.86
15678;BME280;7939;50.814;6.368;2023-04-06T04:31:47;99967.59;;;9.15;47.47
15678;BME280;7939;50.814;6.368;2023-04-06T04:34:14;99963.34;;;9.14;46.75
15678;BME280;7939;50.814;6.368;2023-04-06T04:36:41;99959.94;;;9.13;47.17
15678;BME280;7939;50.814;6.368;2023-04-06T04:39:08;99967.56;;;9.12;47.66
15678;BME280;7939;50.814;6.368;2023-04-06T04:41:35;99963.28;;;9.11;47.02
15678;BME280;7939;50.814;6.368;2023-04-06T04:44:02;99960.75;;;9.11;47.86
15678;BME280;7939;50.814;6.368;2023-04-06T04:46:28;99962.47;;;9.12;47.81
15678;BME280;7939;50.814;6.368;2023-04-06T04:48:56;99962.44;;;9.10;47.69
15678;BME280;7939;50.814;6.368;2023-04-06T04:51:23;99962.44;;;9.07;47.46
15678;BME280;7939;50.814;6.368;2023-04-06T04:53:50;99959.06;;;9.11;47.25
15678;BME280;7939;50.814;6.368;2023-04-06T04:56:17;99965.00;;;9.10;47.14
15678;BME280;7939;50.814;6.368;2023-04-06T04:58:44;99958.13;;;9.05;48.06
15678;BME280;7939;50.814;6.368;2023-04-06T05:01:10;99965.00;;;9.10;47.17
15678;BME280;7939;50.814;6.368;2023-04-06T05:03:37;99969.28;;;9.11;47.30
15678;BME280;7939;50.814;6.368;2023-04-06T05:06:06;99970.09;;;9.09;46.97
15678;BME280;7939;50.814;6.368;2023-04-06T05:08:33;99970.09;;;9.10;47.60
15678;BME280;7939;50.814;6.368;2023-04-06T05:10:59;99965.00;;;9.10;47.30
15678;BME280;7939;50.814;6.368;2023-04-06T05:13:26;99966.69;;;9.10;46.95
15678;BME280;7939;50.814;6.368;2023-04-06T05:15:53;99970.13;;;9.12;47.86
15678;BME280;7939;50.814;6.368;2023-04-06T05:18:19;99969.25;;;9.10;47.13
15678;BME280;7939;50.814;6.368;2023-04-06T05:20:46;99966.69;;;9.08;47.06
15678;BME280;7939;50.814;6.368;2023-04-06T05:23:15;99955.63;;;9.08;48.02
15678;BME280;7939;50.814;6.368;2023-04-06T05:25:42;99966.69;;;9.08;47.77
15678;BME280;7939;50.814;6.368;2023-04-06T05:28:08;99959.03;;;9.08;48.07
15678;BME280;7939;50.814;6.368;2023-04-06T05:30:35;99964.13;;;9.10;47.24
15678;BME280;7939;50.814;6.368;2023-04-06T05:33:02;99954.78;;;9.09;47.72
15678;BME280;7939;50.814;6.368;2023-04-06T05:35:29;99954.78;;;9.09;47.22
15678;BME280;7939;50.814;6.368;2023-04-06T05:37:55;99952.25;;;9.10;48.19
15678;BME280;7939;50.814;6.368;2023-04-06T05:40:24;99952.28;;;9.12;47.24
15678;BME280;7939;50.814;6.368;2023-04-06T05:42:51;99953.13;;;9.12;48.04
15678;BME280;7939;50.814;6.368;2023-04-06T05:45:18;99957.38;;;9.12;47.36
15678;BME280;7939;50.814;6.368;2023-04-06T05:47:45;99955.69;;;9.12;47.53
15678;BME280;7939;50.814;6.368;2023-04-06T05:50:14;99950.53;;;9.11;47.58
15678;BME280;7939;50.814;6.368;2023-04-06T05:52:41;99953.13;;;9.12;47.36
15678;BME280;7939;50.814;6.368;2023-04-06T05:55:09;99952.28;;;9.13;47.51
15678;BME280;7939;50.814;6.368;2023-04-06T05:57:37;99959.94;;;9.15;47.70
15678;BME280;7939;50.814;6.368;2023-04-06T06:00:05;99950.59;;;9.15;47.58
15678;BME280;7939;50.814;6.368;2023-04-06T06:02:34;99954.84;;;9.16;48.22
15678;BME280;7939;50.814;6.368;2023-04-06T06:05:00;99955.69;;;9.15;47.64
15678;BME280;7939;50.814;6.368;2023-04-06T06:07:27;99953.16;;;9.15;47.73
15678;BME280;7939;50.814;6.368;2023-04-06T06:09:56;99947.19;;;9.16;48.22
15678;BME280;7939;50.814;6.368;2023-04-06T06:12:23;99953.16;;;9.17;47.51
15678;BME280;7939;50.814;6.368;2023-04-06T06:14:51;99952.34;;;9.18;47.66
15678;BME280;7939;50.814;6.368;2023-04-06T06:17:18;99952.34;;;9.19;47.73
15678;BME280;7939;50.814;6.368;2023-04-06T06:19:45;99948.94;;;9.21;48.10
15678;BME280;7939;50.814;6.368;2023-04-06T06:22:11;99941.28;;;9.22;48.29
15678;BME280;7939;50.814;6.368;2023-04-06T06:24:38;99939.59;;;9.23;48.16
15678;BME280;7939;50.814;6.368;2023-04-06T06:27:04;99943.84;;;9.24;48.14
15678;BME280;7939;50.814;6.368;2023-04-06T06:29:33;99941.31;;;9.24;47.97
15678;BME280;7939;50.814;6.368;2023-04-06T06:32:01;99950.69;;;9.26;48.34
15678;BME280;7939;50.814;6.368;2023-04-06T06:34:28;99942.19;;;9.26;47.87
15678;BME280;7939;50.814;6.368;2023-04-06T06:36:55;99946.44;;;9.28;47.78
15678;BME280;7939;50.814;6.368;2023-04-06T06:39:21;99937.09;;;9.29;48.79
15678;BME280;7939;50.814;6.368;2023-04-06T06:41:48;99948.16;;;9.29;47.88
15678;BME280;7939;50.814;6.368;2023-04-06T06:44:15;99942.22;;;9.30;48.66
15678;BME280;7939;50.814;6.368;2023-04-06T06:46:42;99944.78;;;9.33;48.57
15678;BME280;7939;50.814;6.368;2023-04-06T06:49:11;99948.19;;;9.34;48.28
15678;BME280;7939;50.814;6.368;2023-04-06T06:51:39;99952.44;;;9.35;48.68
15678;BME280;7939;50.814;6.368;2023-04-06T06:54:06;99951.63;;;9.37;48.64
15678;BME280;7939;50.814;6.368;2023-04-06T06:56:33;99945.69;;;9.38;48.51
15678;BME280;7939;50.814;6.368;2023-04-06T06:59:01;99948.25;;;9.40;48.17
15678;BME280;7939;50.814;6.368;2023-04-06T07:01:27;99947.41;;;9.42;48.91
15678;BME280;7939;50.814;6.368;2023-04-06T07:03:54;99949.94;;;9.42;48.51
15678;BME280;7939;50.814;6.368;2023-04-06T07:06:22;99952.53;;;9.44;48.29
15678;BME280;7939;50.814;6.368;2023-04-06T07:08:50;99943.19;;;9.46;49.05
15678;BME280;7939;50.814;6.368;2023-04-06T07:11:16;99941.50;;;9.48;48.97
15678;BME280;7939;50.814;6.368;2023-04-06T07:13:43;99935.56;;;9.49;48.46
15678;BME280;7939;50.814;6.368;2023-04-06T07:16:10;99938.97;;;9.51;48.44
15678;BME280;7939;50.814;6.368;2023-04-06T07:18:37;99937.28;;;9.52;48.58
15678;BME280;7939;50.814;6.368;2023-04-06T07:21:04;99934.72;;;9.52;48.99
15678;BME280;7939;50.814;6.368;2023-04-06T07:23:32;99930.47;;;9.54;48.76
15678;BME280;7939;50.814;6.368;2023-04-06T07:25:58;99933.03;;;9.55;48.32
15678;BME280;7939;50.814;6.368;2023-04-06T07:28:25;99931.38;;;9.57;49.30
15678;BME280;7939;50.814;6.368;2023-04-06T07:30:52;99938.16;;;9.58;48.94
15678;BME280;7939;50.814;6.368;2023-04-06T07:33:19;99939.88;;;9.59;49.21
15678;BME280;7939;50.814;6.368;2023-04-06T07:35:46;99940.72;;;9.61;48.96
15678;BME280;7939;50.814;6.368;2023-04-06T07:38:13;99939.06;;;9.63;49.23
15678;BME280;7939;50.814;6.368;2023-04-06T07:40:41;99933.94;;;9.65;49.32
15678;BME280;7939;50.814;6.368;2023-04-06T07:43:08;99935.66;;;9.67;49.44
15678;BME280;7939;50.814;6.368;2023-04-06T07:45:35;99938.25;;;9.69;49.37
15678;BME280;7939;50.814;6.368;2023-04-06T07:48:01;99937.41;;;9.71;49.21
15678;BME280;7939;50.814;6.368;2023-04-06T07:50:28;99930.63;;;9.75;49.18
15678;BME280;7939;50.814;6.368;2023-04-06T07:52:55;99931.47;;;9.77;49.70
15678;BME280;7939;50.814;6.368;2023-04-06T07:55:21;99928.09;;;9.81;49.27
15678;BME280;7939;50.814;6.368;2023-04-06T07:57:49;99933.22;;;9.83;49.57
15678;BME280;7939;50.814;6.368;2023-04-06T08:00:17;99930.66;;;9.86;49.69
15678;BME280;7939;50.814;6.368;2023-04-06T08:02:43;99925.66;;;10.03;50.17
15678;BME280;7939;50.814;6.368;2023-04-06T08:05:10;99926.50;;;10.03;50.18
15678;BME280;7939;50.814;6.368;2023-04-06T08:07:37;99917.13;;;10.04;49.95
15678;BME280;7939;50.814;6.368;2023-04-06T08:10:04;99915.47;;;10.07;50.02
15678;BME280;7939;50.814;6.368;2023-04-06T08:12:32;99914.59;;;10.10;50.58
15678;BME280;7939;50.814;6.368;2023-04-06T08:15:00;99918.00;;;10.12;50.25
15678;BME280;7939;50.814;6.368;2023-04-06T08:17:27;99909.53;;;10.13;49.78
15678;BME280;7939;50.814;6.368;2023-04-06T08:19:55;99919.75;;;10.14;49.87
15678;BME280;7939;50.814;6.368;2023-04-06T08:22:23;99915.50;;;10.16;50.15
15678;BME280;7939;50.814;6.368;2023-04-06T08:24:50;99912.97;;;10.19;49.73
15678;BME280;7939;50.814;6.368;2023-04-06T08:27:17;99918.91;;;10.21;49.82
15678;BME280;7939;50.814;6.368;2023-04-06T08:29:43;99919.75;;;10.22;49.85
15678;BME280;7939;50.814;6.368;2023-04-06T08:32:11;99915.53;;;10.24;49.95
15678;BME280;7939;50.814;6.368;2023-04-06T08:34:38;99915.56;;;10.25;49.65
15678;BME280;7939;50.814;6.368;2023-04-06T08:37:04;99921.53;;;10.29;49.75
15678;BME280;7939;50.814;6.368;2023-04-06T08:39:32;99918.13;;;10.30;49.91
15678;BME280;7939;50.814;6.368;2023-04-06T08:42:00;99913.88;;;10.32;50.01
15678;BME280;7939;50.814;6.368;2023-04-06T08:44:28;99918.13;;;10.35;49.71
15678;BME280;7939;50.814;6.368;2023-04-06T08:46:55;99916.44;;;10.37;49.84
15678;BME280;7939;50.814;6.368;2023-04-06T08:49:24;99918.16;;;10.38;49.93
15678;BME280;7939;50.814;6.368;2023-04-06T08:51:51;99915.59;;;10.39;50.32
15678;BME280;7939;50.814;6.368;2023-04-06T08:54:18;99912.19;;;10.42;50.62
15678;BME280;7939;50.814;6.368;2023-04-06T08:56:45;99919.88;;;10.46;50.32
15678;BME280;7939;50.814;6.368;2023-04-06T08:59:12;99923.31;;;10.50;50.01
15678;BME280;7939;50.814;6.368;2023-04-06T09:01:40;99922.47;;;10.51;49.72
15678;BME280;7939;50.814;6.368;2023-04-06T09:04:07;99921.59;;;10.53;49.34
15678;BME280;7939;50.814;6.368;2023-04-06T09:06:37;99922.44;;;10.56;49.78
15678;BME280;7939;50.814;6.368;2023-04-06T09:09:05;99929.28;;;10.58;49.74
15678;BME280;7939;50.814;6.368;2023-04-06T09:11:42;99922.47;;;10.60;49.29
15678;BME280;7939;50.814;6.368;2023-04-06T09:14:09;99924.19;;;10.64;48.67
15678;BME280;7939;50.814;6.368;2023-04-06T09:16:39;99934.41;;;10.67;49.08
15678;BME280;7939;50.814;6.368;2023-04-06T09:19:05;99929.31;;;10.69;48.85
15678;BME280;7939;50.814;6.368;2023-04-06T09:21:32;99925.91;;;10.71;48.68
15678;BME280;7939;50.814;6.368;2023-04-06T09:24:01;99923.34;;;10.74;48.95
15678;BME280;7939;50.814;6.368;2023-04-06T09:26:28;99925.06;;;10.75;48.75
15678;BME280;7939;50.814;6.368;2023-04-06T09:28:57;99924.22;;;10.78;48.82
15678;BME280;7939;50.814;6.368;2023-04-06T09:31:28;99927.63;;;10.82;48.60
15678;BME280;7939;50.814;6.368;2023-04-06T09:33:55;99927.63;;;10.83;48.75
15678;BME280;7939;50.814;6.368;2023-04-06T09:36:29;99928.47;;;10.85;48.58
15678;BME280;7939;50.814;6.368;2023-04-06T09:38:57;99925.91;;;10.87;48.79
15678;BME280;7939;50.814;6.368;2023-04-06T09:41:27;99928.47;;;10.90;48.54
15678;BME280;7939;50.814;6.368;2023-04-06T09:44:03;99929.31;;;10.92;48.35
15678;BME280;7939;50.814;6.368;2023-04-06T09:46:32;99919.13;;;10.96;48.38
15678;BME280;7939;50.814;6.368;2023-04-06T09:49:00;99921.66;;;10.99;48.12
15678;BME280;7939;50.814;6.368;2023-04-06T09:51:30;99925.94;;;11.00;47.76
15678;BME280;7939;50.814;6.368;2023-04-06T09:53:59;99926.78;;;11.02;48.81
15678;BME280;7939;50.814;6.368;2023-04-06T09:56:31;99929.34;;;11.07;48.46
15678;BME280;7939;50.814;6.368;2023-04-06T09:59:02;99929.34;;;11.07;48.58
15678;BME280;7939;50.814;6.368;2023-04-06T10:01:32;99929.34;;;11.08;48.21
15678;BME280;7939;50.814;6.368;2023-04-06T10:04:09;99931.91;;;11.13;48.21
15678;BME280;7939;50.814;6.368;2023-04-06T10:06:40;99929.34;;;11.16;47.95
15678;BME280;7939;50.814;6.368;2023-04-06T10:09:07;99931.03;;;11.19;48.27
15678;BME280;7939;50.814;6.368;2023-04-06T10:11:36;99930.19;;;11.40;48.80
15678;BME280;7939;50.814;6.368;2023-04-06T10:14:03;99937.00;;;11.57;48.50
15678;BME280;7939;50.814;6.368;2023-04-06T10:16:30;99936.75;;;12.37;50.36
15678;BME280;7939;50.814;6.368;2023-04-06T10:19:01;99927.44;;;12.27;48.89
15678;BME280;7939;50.814;6.368;2023-04-06T10:21:32;99935.16;;;12.21;46.82
15678;BME280;7939;50.814;6.368;2023-04-06T10:23:59;99924.81;;;12.31;47.16
15678;BME280;7939;50.814;6.368;2023-04-06T10:26:27;99926.53;;;12.34;47.42
15678;BME280;7939;50.814;6.368;2023-04-06T10:29:01;99931.66;;;12.38;47.75
15678;BME280;7939;50.814;6.368;2023-04-06T10:31:28;99930.72;;;12.52;47.50
15678;BME280;7939;50.814;6.368;2023-04-06T10:33:56;99934.97;;;12.57;47.43
15678;BME280;7939;50.814;6.368;2023-04-06T10:36:25;99928.16;;;12.52;46.35
15678;BME280;7939;50.814;6.368;2023-04-06T10:38:57;99930.63;;;12.62;47.48
15678;BME280;7939;50.814;6.368;2023-04-06T10:41:31;99930.69;;;12.55;45.99
15678;BME280;7939;50.814;6.368;2023-04-06T10:44:00;99927.22;;;12.62;46.77
15678;BME280;7939;50.814;6.368;2023-04-06T10:46:28;99926.34;;;12.67;46.46
15678;BME280;7939;50.814;6.368;2023-04-06T10:48:56;99931.41;;;12.75;46.78
15678;BME280;7939;50.814;6.368;2023-04-06T10:51:25;99933.97;;;12.80;47.46
15678;BME280;7939;50.814;6.368;2023-04-06T10:53:53;99933.91;;;12.86;47.02
15678;BME280;7939;50.814;6.368;2023-04-06T10:56:22;99934.75;;;12.91;46.71
15678;BME280;7939;50.814;6.368;2023-04-06T10:58:52;99921.88;;;12.95;47.37
15678;BME280;7939;50.814;6.368;2023-04-06T11:01:23;99921.00;;;13.01;46.84
15678;BME280;7939;50.814;6.368;2023-04-06T11:03:54;99916.72;;;13.02;47.28
15678;BME280;7939;50.814;6.368;2023-04-06T11:06:22;99922.69;;;13.01;47.72
15678;BME280;7939;50.814;6.368;2023-04-06T11:08:49;99919.28;;;13.00;46.21
15678;BME280;7939;50.814;6.368;2023-04-06T11:11:17;99923.50;;;13.06;46.65
15678;BME280;7939;50.814;6.368;2023-04-06T11:13:45;99918.41;;;13.03;46.11
15678;BME280;7939;50.814;6.368;2023-04-06T11:16:14;99924.31;;;13.11;46.14
15678;BME280;7939;50.814;6.368;2023-04-06T11:18:49;99930.28;;;13.16;47.03
15678;BME280;7939;50.814;6.368;2023-04-06T11:21:16;99927.72;;;13.16;46.39
15678;BME280;7939;50.814;6.368;2023-04-06T11:23:43;99924.25;;;13.23;46.39
15678;BME280;7939;50.814;6.368;2023-04-06T11:26:11;99925.94;;;13.27;47.45
15678;BME280;7939;50.814;6.368;2023-04-06T11:28:38;99931.09;;;13.24;48.24
15678;BME280;7939;50.814;6.368;2023-04-06T11:31:05;99921.66;;;13.28;48.01
15678;BME280;7939;50.814;6.368;2023-04-06T11:33:35;99913.91;;;13.31;47.31
15678;BME280;7939;50.814;6.368;2023-04-06T11:36:04;99919.88;;;13.36;47.58
15678;BME280;7939;50.814;6.368;2023-04-06T11:38:31;99910.44;;;13.38;47.66
15678;BME280;7939;50.814;6.368;2023-04-06T11:40:58;99913.78;;;13.44;47.79
15678;BME280;7939;50.814;6.368;2023-04-06T11:43:28;99912.94;;;13.47;47.40
15678;BME280;7939;50.814;6.368;2023-04-06T11:46:00;99901.75;;;13.51;47.07
15678;BME280;7939;50.814;6.368;2023-04-06T11:48:28;99899.16;;;13.54;47.23
15678;BME280;7939;50.814;6.368;2023-04-06T11:50:56;99904.25;;;13.57;47.08
15678;BME280;7939;50.814;6.368;2023-04-06T11:53:24;99899.06;;;13.62;46.69
15678;BME280;7939;50.814;6.368;2023-04-06T11:55:51;99909.31;;;13.63;46.93
15678;BME280;7939;50.814;6.368;2023-04-06T11:58:18;99906.75;;;13.65;47.18
15678;BME280;7939;50.814;6.368;2023-04-06T12:00:44;99906.72;;;13.66;46.97
15678;BME280;7939;50.814;6.368;2023-04-06T12:03:12;99893.09;;;13.60;46.42
15678;BME280;7939;50.814;6.368;2023-04-06T12:05:38;99911.03;;;13.63;46.31
15678;BME280;7939;50.814;6.368;2023-04-06T12:08:05;99905.91;;;13.64;46.16
15678;BME280;7939;50.814;6.368;2023-04-06T12:10:33;99916.19;;;13.64;46.74
15678;BME280;7939;50.814;6.368;2023-04-06T12:13:00;99920.41;;;13.68;47.60
15678;BME280;7939;50.814;6.368;2023-04-06T12:15:27;99916.97;;;13.68;46.63
15678;BME280;7939;50.814;6.368;2023-04-06T12:17:53;99915.25;;;13.68;47.35
15678;BME280;7939;50.814;6.368;2023-04-06T12:20:20;99911.84;;;13.68;46.69
15678;BME280;7939;50.814;6.368;2023-04-06T12:22:46;99914.38;;;13.69;47.27
15678;BME280;7939;50.814;6.368;2023-04-06T12:25:13;99921.25;;;13.69;47.32
15678;BME280;7939;50.814;6.368;2023-04-06T12:27:41;99916.09;;;13.69;47.12
15678;BME280;7939;50.814;6.368;2023-04-06T12:30:08;99922.09;;;13.72;47.42
15678;BME280;7939;50.814;6.368;2023-04-06T12:32:35;99924.66;;;13.72;47.57
15678;BME280;7939;50.814;6.368;2023-04-06T12:35:02;99922.91;;;13.74;47.04
15678;BME280;7939;50.814;6.368;2023-04-06T12:37:29;99916.91;;;13.74;47.61
15678;BME280;7939;50.814;6.368;2023-04-06T12:39:55;99922.94;;;13.73;47.38
15678;BME280;7939;50.814;6.368;2023-04-06T12:42:22;99914.38;;;13.72;48.61
15678;BME280;7939;50.814;6.368;2023-04-06T12:44:50;99927.22;;;13.72;48.58
15678;BME280;7939;50.814;6.368;2023-04-06T12:47:17;99918.66;;;13.72;48.01
15678;BME280;7939;50.814;6.368;2023-04-06T12:49:44;99913.56;;;13.67;48.52
15678;BME280;7939;50.814;6.368;2023-04-06T12:52:11;99915.31;;;13.65;48.88
15678;BME280;7939;50.814;6.368;2023-04-06T12:54:38;99916.13;;;13.67;48.86
15678;BME280;7939;50.814;6.368;2023-04-06T12:57:04;99916.13;;;13.67;49.60
15678;BME280;7939;50.814;6.368;2023-04-06T12:59:31;99912.75;;;13.65;49.75
15678;BME280;7939;50.814;6.368;2023-04-06T13:02:03;99904.22;;;13.62;49.86
15678;BME280;7939;50.814;6.368;2023-04-06T13:04:30;99901.63;;;13.62;49.43
15678;BME280;7939;50.814;6.368;2023-04-06T13:06:56;99902.56;;;13.58;50.16
15678;BME280;7939;50.814;6.368;2023-04-06T13:09:23;99900.00;;;13.58;49.80
15678;BME280;7939;50.814;6.368;2023-04-06T13:11:50;99896.50;;;13.62;49.39
15678;BME280;7939;50.814;6.368;2023-04-06T13:14:17;99897.41;;;13.59;50.24
15678;BME280;7939;50.814;6.368;2023-04-06T13:16:43;99902.50;;;13.62;50.18